Time;durP1;ratioP1;P1;durP2;ratioP2;P2;SDS_P1;SDS_P2;PMS_P1;PMS_P2;Temp;Humidity;BMP_temperature;BMP_pressure;BME280_temperature;BME280_humidity;BME280_pressure;Samples;Min_cycle;Max_cycle;Signal;HPM_P1;HPM_P2
2022/04/22 04:01:34;;;;;;;24.60;18.27;;;8.20;99.90;;;;;;5470407;23;20499;-78
2022/04/22 04:04:01;;;;;;;27.47;18.67;;;8.30;99.90;;;;;;4989877;28;20456;-78
2022/04/22 04:06:28;;;;;;;28.63;18.53;;;8.20;99.90;;;;;;4989137;28;20458;-81
2022/04/22 04:17:14;;;;;;;28.40;19.57;;;8.20;99.90;;;;;;4969881;28;20437;-80
2022/04/22 04:25:10;;;;;;;33.07;21.93;;;8.30;99.90;;;;;;4970219;28;20822;-81
2022/04/22 04:27:38;;;;;;;30.73;20.50;;;8.30;99.90;;;;;;4970706;28;20484;-81
2022/04/22 04:30:06;;;;;;;28.43;19.73;;;8.30;99.90;;;;;;4970938;28;20472;-80
2022/04/22 04:32:34;;;;;;;29.90;20.20;;;8.30;99.90;;;;;;4971288;28;20572;-81
2022/04/22 04:35:01;;;;;;;30.53;20.27;;;8.30;99.90;;;;;;4971241;28;20504;-81
2022/04/22 04:37:28;;;;;;;29.53;20.87;;;8.30;99.90;;;;;;4969547;28;20464;-79
2022/04/22 04:39:55;;;;;;;30.40;20.57;;;8.30;99.90;;;;;;4971192;28;20456;-80
2022/04/22 04:42:23;;;;;;;33.13;20.33;;;8.30;99.90;;;;;;4971290;28;20488;-81
2022/04/22 04:44:50;;;;;;;30.40;21.60;;;8.30;99.90;;;;;;4971239;28;20587;-82
2022/04/22 04:47:17;;;;;;;31.67;20.13;;;8.40;99.90;;;;;;4967198;28;20945;-68
2022/04/22 04:49:47;;;;;;;34.50;20.80;;;8.30;99.90;;;;;;4967404;28;20464;-68
2022/04/22 04:52:14;;;;;;;32.50;21.30;;;8.30;99.90;;;;;;4967060;28;20534;-68
2022/04/22 04:54:41;;;;;;;27.60;19.10;;;8.40;99.90;;;;;;4972687;28;20503;-81
2022/04/22 04:57:08;;;;;;;30.93;21.17;;;8.40;99.90;;;;;;4972331;28;20469;-81
2022/04/22 04:59:35;;;;;;;34.43;21.77;;;8.30;99.90;;;;;;4975233;28;20464;-82
2022/04/22 05:02:01;;;;;;;30.63;20.17;;;8.30;99.90;;;;;;4980862;28;20463;-80
2022/04/22 05:04:28;;;;;;;31.33;21.73;;;8.30;99.90;;;;;;4986540;28;20510;-80
2022/04/22 05:06:57;;;;;;;31.83;21.97;;;8.30;99.90;;;;;;4985928;28;20535;-79
2022/04/22 05:09:23;;;;;;;32.30;22.30;;;8.20;99.90;;;;;;4981705;28;20461;-80
2022/04/22 05:11:50;;;;;;;32.90;21.07;;;8.20;99.90;;;;;;4977965;28;20528;-81
2022/04/22 05:14:19;;;;;;;32.27;21.10;;;8.10;99.90;;;;;;4971172;28;20500;-81
2022/04/22 05:16:46;;;;;;;34.53;21.33;;;8.20;99.90;;;;;;4970089;28;20464;-81
2022/04/22 05:19:13;;;;;;;36.10;22.67;;;8.20;99.90;;;;;;4970365;28;20463;-84
2022/04/22 05:21:40;;;;;;;30.93;21.10;;;8.20;99.90;;;;;;4970472;28;20476;-81
2022/04/22 05:24:08;;;;;;;31.10;20.23;;;8.20;99.90;;;;;;4973273;28;20457;-81
2022/04/22 05:26:35;;;;;;;30.60;21.10;;;8.30;99.90;;;;;;4972379;28;21422;-81
2022/04/22 05:29:02;;;;;;;32.47;22.43;;;8.40;99.90;;;;;;4973531;28;20460;-80
2022/04/22 05:34:13;;;;;;;31.17;21.37;;;8.40;99.90;;;;;;4962731;28;20500;-80
2022/04/22 05:36:40;;;;;;;30.50;21.37;;;8.40;99.90;;;;;;4953209;29;20817;-81
2022/04/22 05:39:10;;;;;;;31.70;21.87;;;8.40;99.90;;;;;;4954348;29;20467;-81
2022/04/22 05:41:37;;;;;;;30.50;19.43;;;8.50;99.90;;;;;;4954444;29;20480;-80
2022/04/22 05:44:04;;;;;;;32.13;20.03;;;8.50;99.90;;;;;;4954477;29;20457;-81
2022/04/22 05:46:31;;;;;;;31.10;20.90;;;8.50;99.90;;;;;;4953607;29;20461;-79
2022/04/22 05:48:58;;;;;;;34.07;22.17;;;8.60;99.90;;;;;;4955197;28;20548;-81
2022/04/22 05:51:25;;;;;;;35.70;23.63;;;8.60;99.90;;;;;;4953438;28;20849;-80
2022/04/22 05:53:51;;;;;;;33.93;21.03;;;8.60;99.90;;;;;;4953116;28;20492;-81
2022/04/22 05:56:20;;;;;;;31.33;22.70;;;8.60;99.90;;;;;;4953379;29;20497;-81
2022/04/22 05:58:47;;;;;;;30.53;21.07;;;8.60;99.90;;;;;;4953749;29;20960;-81
2022/04/22 06:01:15;;;;;;;29.97;22.03;;;8.70;99.90;;;;;;4952872;28;20540;-81
2022/04/22 06:03:42;;;;;;;31.67;22.07;;;8.70;99.90;;;;;;4953160;29;20473;-79
2022/04/22 06:06:09;;;;;;;28.80;20.10;;;8.70;99.90;;;;;;4953807;28;20463;-81
2022/04/22 06:11:21;;;;;;;30.00;20.27;;;8.80;99.90;;;;;;4952866;29;20464;-79
2022/04/22 06:13:48;;;;;;;29.23;20.43;;;8.80;99.90;;;;;;4953337;29;20560;-78
2022/04/22 06:16:15;;;;;;;30.23;20.13;;;8.80;99.90;;;;;;4952813;29;20501;-79
2022/04/22 06:18:42;;;;;;;30.77;20.67;;;8.90;99.90;;;;;;4953753;29;20461;-81
2022/04/22 06:21:09;;;;;;;27.17;19.23;;;8.90;99.90;;;;;;4953247;29;20841;-79
2022/04/22 06:23:35;;;;;;;29.50;19.63;;;8.90;99.90;;;;;;4952864;29;20457;-78
2022/04/22 06:26:02;;;;;;;30.37;20.27;;;9.00;99.90;;;;;;4953176;28;20988;-79
2022/04/22 06:28:31;;;;;;;31.47;21.40;;;9.00;99.90;;;;;;4952197;29;20471;-79
2022/04/22 06:30:58;;;;;;;29.10;20.03;;;9.00;99.90;;;;;;4952275;29;20495;-79
2022/04/22 06:33:25;;;;;;;26.33;19.47;;;9.10;99.90;;;;;;4951491;28;20461;-79
2022/04/22 06:35:52;;;;;;;28.80;18.93;;;9.10;99.90;;;;;;4951707;29;21006;-78
2022/04/22 06:38:20;;;;;;;27.00;19.20;;;9.10;99.90;;;;;;4950816;29;20450;-79
2022/04/22 06:46:18;;;;;;;28.53;19.23;;;9.30;99.90;;;;;;4950746;29;20425;-79
2022/04/22 06:48:46;;;;;;;28.33;19.60;;;9.30;99.90;;;;;;4951431;29;20497;-78
2022/04/22 06:51:13;;;;;;;29.67;19.67;;;9.40;99.90;;;;;;4952411;28;20493;-79
2022/04/22 06:53:41;;;;;;;28.10;20.03;;;9.40;99.90;;;;;;4952461;29;20889;-79
2022/04/22 06:56:09;;;;;;;24.80;18.17;;;9.50;99.90;;;;;;4951800;29;20926;-79
2022/04/22 06:58:38;;;;;;;26.93;19.17;;;9.60;99.90;;;;;;4951416;29;20568;-79
2022/04/22 07:01:07;;;;;;;27.13;20.00;;;9.60;99.90;;;;;;4950495;29;20488;-67
2022/04/22 07:03:34;;;;;;;23.73;17.27;;;9.70;99.90;;;;;;4949823;29;20453;-67
2022/04/22 07:06:01;;;;;;;25.80;18.27;;;9.80;99.90;;;;;;4949839;29;20511;-66
2022/04/22 07:08:28;;;;;;;25.90;18.73;;;9.90;99.90;;;;;;4948804;29;20554;-66
2022/04/22 07:10:56;;;;;;;27.90;19.70;;;10.00;99.90;;;;;;4949421;29;20485;-68
2022/04/22 07:13:23;;;;;;;27.43;18.90;;;10.00;99.90;;;;;;4949643;29;20552;-67
2022/04/22 07:15:53;;;;;;;26.00;18.50;;;10.10;99.90;;;;;;4949738;28;20596;-79
2022/04/22 07:18:21;;;;;;;28.03;18.83;;;10.10;99.90;;;;;;4949595;29;20462;-79
2022/04/22 07:20:48;;;;;;;28.23;18.80;;;10.20;99.90;;;;;;4951031;28;20563;-79
2022/04/22 07:23:15;;;;;;;27.70;18.57;;;10.30;99.90;;;;;;4951405;29;20464;-80
2022/04/22 07:25:46;;;;;;;23.37;16.60;;;10.30;99.90;;;;;;4951391;29;20485;-79
2022/04/22 07:28:14;;;;;;;24.33;19.30;;;10.40;99.90;;;;;;4950771;29;20950;-80
2022/04/22 07:30:46;;;;;;;27.03;17.80;;;10.50;99.90;;;;;;4950300;29;20481;-80
2022/04/22 07:33:14;;;;;;;24.00;18.10;;;10.50;99.90;;;;;;4948093;29;20450;-80
2022/04/22 07:35:42;;;;;;;27.20;17.80;;;10.60;99.90;;;;;;4948171;29;20505;-79
2022/04/22 07:38:11;;;;;;;27.33;18.13;;;10.70;99.90;;;;;;4947971;28;20492;-80
2022/04/22 07:40:40;;;;;;;23.87;17.40;;;10.90;99.90;;;;;;4948485;29;20601;-79
2022/04/22 07:48:40;;;;;;;23.20;17.43;;;11.10;99.90;;;;;;4948589;29;20522;-79
2022/04/22 07:51:07;;;;;;;23.57;17.53;;;11.20;99.90;;;;;;4949140;28;20485;-79
2022/04/22 07:53:35;;;;;;;24.37;17.60;;;11.40;99.90;;;;;;4949492;29;20536;-79
2022/04/22 07:56:03;;;;;;;26.47;18.47;;;11.60;99.90;;;;;;4948886;29;20501;-79
2022/04/22 07:58:31;;;;;;;22.53;16.70;;;11.90;99.90;;;;;;4947583;28;20984;-79
2022/04/22 08:00:58;;;;;;;24.57;18.37;;;12.00;99.90;;;;;;4948608;28;20588;-80
2022/04/22 08:03:26;;;;;;;22.73;18.00;;;12.30;99.90;;;;;;4949235;29;20609;-80
2022/04/22 08:05:54;;;;;;;24.50;17.23;;;12.50;99.90;;;;;;4948599;29;20461;-80
2022/04/22 08:08:21;;;;;;;21.27;17.07;;;12.50;99.90;;;;;;4948364;29;20653;-80
2022/04/22 08:10:48;;;;;;;22.70;17.43;;;12.70;99.90;;;;;;4948805;28;20529;-80
2022/04/22 08:13:15;;;;;;;21.73;16.67;;;12.80;99.90;;;;;;4948929;29;20458;-80
2022/04/22 08:15:42;;;;;;;23.10;17.43;;;12.80;99.90;;;;;;4948900;29;21115;-80
2022/04/22 08:18:10;;;;;;;23.13;16.00;;;12.80;99.90;;;;;;4947985;29;20456;-80
2022/04/22 08:20:36;;;;;;;19.97;15.83;;;12.90;99.90;;;;;;4948341;29;20478;-80
2022/04/22 08:23:05;;;;;;;20.53;16.17;;;13.00;99.90;;;;;;4948539;29;20569;-81
2022/04/22 08:25:33;;;;;;;20.67;16.53;;;13.20;99.90;;;;;;4948852;29;20481;-80
2022/04/22 08:27:59;;;;;;;21.70;16.47;;;13.30;99.90;;;;;;4948001;28;20461;-80
2022/04/22 08:30:27;;;;;;;21.20;17.10;;;13.50;99.90;;;;;;4948867;28;20547;-80
2022/04/22 08:32:53;;;;;;;18.70;15.77;;;13.60;99.90;;;;;;4948845;29;20469;-81
2022/04/22 08:35:20;;;;;;;19.43;15.33;;;13.60;99.90;;;;;;4948778;29;20600;-80
2022/04/22 08:37:47;;;;;;;20.50;15.30;;;13.60;99.90;;;;;;4948520;29;20465;-80
2022/04/22 08:40:16;;;;;;;23.63;17.03;;;13.60;99.90;;;;;;4948475;29;20457;-80
2022/04/22 08:42:46;;;;;;;21.73;15.70;;;13.70;99.90;;;;;;4949098;29;20457;-81
2022/04/22 08:45:13;;;;;;;20.43;16.43;;;13.80;99.90;;;;;;4949388;28;20537;-80
2022/04/22 08:50:28;;;;;;;20.40;16.37;;;14.00;99.90;;;;;;4949291;29;20433;-80
2022/04/22 08:52:57;;;;;;;21.20;15.00;;;14.20;99.90;;;;;;4948837;28;20467;-80
2022/04/22 08:55:26;;;;;;;20.20;15.33;;;14.30;99.90;;;;;;4949069;28;20939;-80
2022/04/22 08:57:55;;;;;;;22.37;15.73;;;14.50;99.90;;;;;;4946901;28;20969;-80
2022/04/22 09:00:23;;;;;;;19.37;15.83;;;14.60;99.90;;;;;;4947714;29;20508;-80
2022/04/22 09:02:50;;;;;;;20.40;15.00;;;14.70;99.90;;;;;;4947788;29;20726;-80
2022/04/22 09:05:17;;;;;;;19.50;15.60;;;14.80;99.90;;;;;;4948058;29;20908;-80
2022/04/22 09:07:45;;;;;;;20.17;14.80;;;14.90;99.90;;;;;;4947423;29;20464;-80
2022/04/22 09:10:12;;;;;;;18.10;15.00;;;14.90;99.90;;;;;;4947813;28;20453;-80
2022/04/22 09:12:50;;;;;;;19.47;14.93;;;15.00;99.90;;;;;;4947704;28;20457;-80
2022/04/22 09:15:17;;;;;;;18.20;14.70;;;15.00;99.90;;;;;;4948380;29;20442;-83
2022/04/22 09:17:43;;;;;;;19.00;14.27;;;15.10;99.90;;;;;;4948624;28;20465;-80
2022/04/22 09:20:16;;;;;;;17.67;14.40;;;15.20;99.90;;;;;;4949731;29;20453;-80
2022/04/22 09:22:45;;;;;;;17.63;13.70;;;15.50;99.90;;;;;;4949726;29;21192;-79
2022/04/22 09:25:12;;;;;;;18.90;14.90;;;15.70;99.90;;;;;;4949785;29;20460;-82
2022/04/22 09:27:42;;;;;;;20.53;14.60;;;15.90;99.90;;;;;;4948471;29;20897;-79
2022/04/22 09:30:12;;;;;;;19.50;14.67;;;16.20;99.90;;;;;;4948406;28;21257;-79
2022/04/22 09:32:40;;;;;;;18.47;14.80;;;16.40;99.90;;;;;;4948943;29;20470;-80
2022/04/22 09:35:11;;;;;;;17.10;13.27;;;16.70;99.90;;;;;;4949356;28;20565;-80
2022/04/22 09:43:35;;;;;;;17.30;14.67;;;17.10;99.90;;;;;;4908054;29;20438;-79
2022/04/22 09:46:02;;;;;;;19.67;13.90;;;17.00;99.90;;;;;;4932355;28;20945;-79
2022/04/22 09:48:41;;;;;;;17.73;14.00;;;16.90;99.90;;;;;;4953623;28;20461;-79
2022/04/22 09:51:22;;;;;;;15.60;13.27;;;17.00;99.90;;;;;;4968126;28;20476;-79
2022/04/22 09:53:59;;;;;;;16.93;13.60;;;17.10;99.90;;;;;;4968140;28;20468;-79
2022/04/22 09:56:26;;;;;;;16.30;14.00;;;17.20;99.90;;;;;;4967261;28;20985;-80
2022/04/22 09:58:55;;;;;;;16.00;12.60;;;17.40;99.90;;;;;;4967883;28;20452;-79
2022/04/22 10:01:25;;;;;;;16.90;13.40;;;17.60;99.90;;;;;;4968325;28;20860;-79
2022/04/22 10:03:52;;;;;;;17.33;12.03;;;17.90;99.90;;;;;;4968245;28;20466;-79
2022/04/22 10:06:19;;;;;;;16.20;12.87;;;18.10;99.90;;;;;;4948102;28;20485;-80
2022/04/22 10:08:48;;;;;;;15.60;12.80;;;18.30;99.90;;;;;;4950090;28;21248;-79
2022/04/22 10:11:17;;;;;;;17.97;13.40;;;18.40;99.90;;;;;;4985354;23;20586;-73
2022/04/22 10:13:46;;;;;;;14.60;12.70;;;18.50;99.90;;;;;;4993628;28;20452;-73
2022/04/22 10:16:16;;;;;;;16.93;12.73;;;18.50;99.90;;;-143.14;100.00;56521.75;4995379;28;20970;-73
2022/04/22 10:18:44;;;;;;;17.50;13.03;;;18.40;99.90;;;-143.14;100.00;56521.75;4991629;28;20479;-73
2022/04/22 10:21:11;;;;;;;17.80;13.33;;;18.40;99.90;;;;;;4991204;28;20496;-73
2022/04/22 10:23:38;;;;;;;14.10;12.60;;;18.40;99.90;;;;;;4975904;28;20941;-73
2022/04/22 10:26:06;;;;;;;18.50;14.50;;;18.40;99.90;;;;;;4975717;28;20444;-73
2022/04/22 10:28:34;;;;;;;17.47;14.10;;;18.40;99.90;;;;;;4975608;28;20543;-73
2022/04/22 10:31:03;;;;;;;16.37;12.20;;;18.30;99.90;;;;;;4972937;28;20468;-73
2022/04/22 10:33:40;;;;;;;16.20;12.20;;;18.30;99.90;;;;;;4974550;28;20543;-73
2022/04/22 10:36:07;;;;;;;15.67;12.50;;;18.60;99.90;;;;;;4969601;28;20491;-73
2022/04/22 10:38:37;;;;;;;16.50;12.33;;;18.80;99.90;;;;;;4969168;28;20549;-73
2022/04/22 10:41:13;;;;;;;15.50;12.97;;;19.00;99.90;;;;;;4970895;28;20472;-74
2022/04/22 10:43:40;;;;;;;15.83;12.10;;;19.10;99.90;;;;;;4970960;28;20440;-73
2022/04/22 10:49:15;;;;;;;18.93;13.57;;;19.50;99.90;;;;;;4970004;28;20460;-73
2022/04/22 10:52:00;;;;;;;15.00;12.70;;;19.50;99.90;;;;;;4969539;28;20530;-73
2022/04/22 10:55:00;;;;;;;16.03;12.90;;;19.50;99.90;;;;;;4969199;28;20545;-73
2022/04/22 10:57:29;;;;;;;15.97;11.60;;;19.70;99.90;;;;;;4955364;28;20501;-71
2022/04/22 11:00:27;;;;;;;14.73;12.40;;;20.00;99.90;;;;;;4960536;28;20467;-69
2022/04/22 11:03:03;;;;;;;12.73;11.43;;;20.10;99.90;;;;;;4968968;28;20485;-69
2022/04/22 11:05:39;;;;;;;19.87;13.80;;;20.20;99.90;;;;;;4969035;28;20468;-68
2022/04/22 11:08:07;;;;;;;15.30;13.67;;;20.20;99.90;;;;;;4968512;28;20544;-77
2022/04/22 11:11:10;;;;;;;16.47;12.00;;;20.20;99.90;;;;;;4960887;28;20465;-74
2022/04/22 11:13:42;;;;;;;15.20;11.50;;;20.10;99.90;;;;;;4950056;29;20459;-74
2022/04/22 11:16:15;;;;;;;14.30;11.90;;;20.10;99.90;;;;;;4949684;29;20537;-73
2022/04/22 11:18:43;;;;;;;14.40;12.83;;;20.10;99.90;;;;;;4949341;28;20438;-74
2022/04/22 11:21:36;;;;;;;15.27;11.73;;;20.10;99.90;;;;;;4948770;29;20481;-74
2022/04/22 11:24:13;;;;;;;13.80;12.17;;;20.30;99.90;;;;;;4949268;29;20458;-72
2022/04/22 11:26:41;;;;;;;16.37;11.90;;;20.40;99.90;;;;;;4949130;29;20465;-75
2022/04/22 11:29:08;;;;;;;13.87;11.70;;;20.50;99.90;;;;;;4949876;29;20877;-77
2022/04/22 11:31:37;;;;;;;13.83;12.03;;;20.60;99.90;;;;;;4952794;28;20544;-76
2022/04/22 11:34:06;;;;;;;16.57;12.87;;;20.70;99.90;;;;;;4950338;29;20456;-77
2022/04/22 11:36:45;;;;;;;11.53;10.33;;;20.70;99.90;;;;;;4948826;29;20878;-77
2022/04/22 11:39:17;;;;;;;11.83;10.43;;;20.90;99.90;;;;;;4949502;29;20949;-77
2022/04/22 11:41:57;;;;;;;13.23;11.50;;;21.20;99.90;;;;;;4949368;29;20470;-77
2022/04/22 11:44:25;;;;;;;11.57;10.37;;;21.40;99.90;;;;;;4951656;29;20456;-78
2022/04/22 11:46:52;;;;;;;15.27;11.80;;;21.60;99.90;;;;;;4949376;29;20544;-75
2022/04/22 11:49:19;;;;;;;19.27;12.10;;;21.70;99.90;;;;;;4949017;29;20962;-76
2022/04/22 11:51:53;;;;;;;13.23;10.40;;;21.60;99.90;;;;;;4964614;28;20504;-76
2022/04/22 11:54:24;;;;;;;15.47;11.23;;;21.70;99.90;;;;;;4966248;28;20464;-77
2022/04/22 11:56:52;;;;;;;18.83;12.30;;;21.70;99.90;;;;;;4966671;28;20491;-74
2022/04/22 11:59:20;;;;;;;15.43;10.80;;;21.70;99.90;;;;;;4967074;28;21481;-74
2022/04/22 12:10:00;;;;;;;13.50;11.07;;;22.30;99.90;;;;;;4954388;28;20456;-75
2022/04/22 12:12:29;;;;;;;16.00;12.43;;;22.50;99.90;;;;;;4966667;28;20919;-72
2022/04/22 12:15:06;;;;;;;12.60;11.23;;;22.60;97.90;;;;;;4967035;28;20444;-75
2022/04/22 12:17:33;;;;;;;16.03;10.60;;;22.60;97.50;;;;;;4965681;28;21026;-75
2022/04/22 12:20:00;;;;;;;14.30;11.13;;;22.70;98.10;;;;;;4964582;28;20551;-74
2022/04/22 12:22:32;;;;;;;13.77;12.30;;;22.80;97.70;;;;;;4947777;29;20480;-75
2022/04/22 12:25:12;;;;;;;18.13;11.60;;;23.00;97.30;;;;;;4947912;29;20446;-75
2022/04/22 12:27:40;;;;;;;13.40;11.43;;;22.80;97.20;;;;;;4949386;28;20836;-75
2022/04/22 12:30:10;;;;;;;15.63;11.80;;;22.80;96.40;;;;;;4950095;28;20492;-76
2022/04/22 12:32:37;;;;;;;12.97;11.40;;;22.80;96.00;;;;;;4947448;28;20481;-75
2022/04/22 12:35:11;;;;;;;14.30;11.73;;;22.80;96.10;;;;;;4948038;28;20464;-75
2022/04/22 12:37:43;;;;;;;14.90;12.03;;;22.70;96.50;;;;;;4946740;29;20501;-71
2022/04/22 12:40:11;;;;;;;13.43;11.13;;;22.60;96.50;;;;;;4947102;29;20976;-71
2022/04/22 12:42:39;;;;;;;12.57;11.10;;;22.60;96.30;;;;;;4946812;29;20488;-71
2022/04/22 12:53:34;;;;;;;15.93;12.13;;;22.80;96.70;;;;;;4947184;29;20512;-72
2022/04/22 12:56:01;;;;;;;13.40;11.00;;;23.10;95.10;;;;;;4946669;29;20472;-71
2022/04/22 12:58:28;;;;;;;12.77;11.10;;;23.00;95.70;;;;;;4945217;29;20581;-71
2022/04/22 13:00:56;;;;;;;11.97;10.30;;;23.20;95.10;;;-143.14;100.00;56521.75;4947469;29;20515;-71
2022/04/22 13:03:23;;;;;;;13.87;11.13;;;23.30;95.80;;;;;;4947340;29;20453;-71
2022/04/22 13:05:50;;;;;;;11.97;10.50;;;23.30;95.00;;;;;;4947316;29;20468;-71
2022/04/22 13:08:17;;;;;;;12.57;11.07;;;23.50;94.40;;;;;;4946709;29;20450;-71
2022/04/22 13:10:47;;;;;;;15.13;11.57;;;23.60;94.50;;;;;;4947006;29;20500;-71
2022/04/22 13:13:16;;;;;;;12.00;10.23;;;23.60;93.40;;;;;;4947864;29;20461;-72
2022/04/22 13:15:43;;;;;;;13.33;10.40;;;23.40;94.00;;;;;;4947523;28;20457;-71
2022/04/22 13:18:13;;;;;;;14.03;9.93;;;23.40;94.20;;;;;;4946705;29;20966;-71
2022/04/22 13:20:40;;;;;;;20.13;10.63;;;23.40;93.90;;;;;;4947425;29;20581;-71
2022/04/22 13:23:07;;;;;;;14.20;9.57;;;23.60;94.30;;;;;;4947441;28;20556;-71
2022/04/22 13:25:34;;;;;;;12.20;9.90;;;23.60;93.80;;;;;;4947502;29;20578;-72
2022/04/22 13:28:04;;;;;;;12.77;9.30;;;23.70;93.60;;;;;;4946622;29;20598;-71
2022/04/22 13:30:30;;;;;;;8.93;8.03;;;23.80;93.00;;;;;;4947441;28;20840;-73
2022/04/22 13:32:57;;;;;;;13.63;8.20;;;23.80;93.00;;;;;;4947010;29;20470;-71
2022/04/22 13:35:24;;;;;;;9.90;7.80;;;23.70;92.60;;;;;;4947106;29;20465;-73
2022/04/22 13:37:51;;;;;;;11.63;8.27;;;23.70;91.90;;;;;;4946703;29;20497;-72
2022/04/22 13:40:18;;;;;;;11.37;8.63;;;23.80;91.80;;;;;;4946384;29;20467;-73
2022/04/22 13:42:46;;;;;;;8.23;6.80;;;23.80;91.50;;;;;;4947733;28;20922;-73
2022/04/22 13:53:26;;;;;;;9.67;8.20;;;23.80;90.60;;;;;;4950218;29;20464;-71
2022/04/22 13:55:54;;;;;;;11.13;9.67;;;23.70;90.90;;;;;;4950588;29;20472;-71
2022/04/22 13:58:21;;;;;;;9.40;7.70;;;23.50;90.90;;;;;;4950109;29;20497;-72
2022/04/22 14:00:50;;;;;;;9.23;7.03;;;23.50;90.80;;;;;;4950878;29;20569;-71
2022/04/22 14:03:18;;;;;;;9.57;7.80;;;23.50;91.30;;;;;;4950990;29;20481;-71
2022/04/22 14:05:45;;;;;;;8.60;6.90;;;23.40;90.70;;;;;;4950255;29;20841;-71
2022/04/22 14:08:12;;;;;;;9.57;7.13;;;23.40;91.50;;;;;;4951130;28;20568;-70
2022/04/22 14:10:39;;;;;;;11.10;7.80;;;23.50;91.10;;;;;;4950062;29;20465;-71
2022/04/22 14:13:06;;;;;;;7.87;6.87;;;23.50;90.80;;;;;;4948690;29;20552;-71
2022/04/22 14:15:33;;;;;;;9.10;7.63;;;23.60;91.30;;;;;;4949540;28;21020;-72
2022/04/22 14:18:02;;;;;;;12.73;7.37;;;23.70;90.40;;;;;;4953321;28;20499;-72
2022/04/22 14:20:29;;;;;;;8.93;7.10;;;23.80;89.50;;;;;;4959947;28;20560;-71
2022/04/22 14:22:55;;;;;;;10.07;7.37;;;23.90;90.20;;;;;;4955085;28;20471;-71
2022/04/22 14:25:22;;;;;;;7.87;6.67;;;23.90;89.50;;;;;;4954895;28;20985;-71
2022/04/22 14:27:49;;;;;;;8.47;7.47;;;24.00;90.00;;;;;;4949467;29;20465;-71
2022/04/22 14:30:16;;;;;;;7.40;6.67;;;24.00;88.60;;;;;;4949559;29;20553;-71
2022/04/22 14:32:44;;;;;;;6.80;6.20;;;23.90;90.00;;;;;;4948967;28;20537;-70
2022/04/22 14:35:12;;;;;;;9.57;6.60;;;24.00;89.20;;;;;;4948494;29;20924;-70
2022/04/22 14:37:40;;;;;;;9.47;7.23;;;24.00;88.80;;;;;;4946962;29;20624;-72
2022/04/22 14:40:08;;;;;;;10.53;7.73;;;24.00;88.30;;;;;;4949631;28;20569;-71
2022/04/22 14:42:35;;;;;;;7.20;6.50;;;24.00;88.10;;;;;;4949535;28;20485;-73
2022/04/22 14:45:02;;;;;;;8.27;6.20;;;24.00;89.10;;;;;;4949686;29;20528;-71
2022/04/22 14:47:29;;;;;;;8.67;6.50;;;24.10;88.70;;;;;;4948739;29;20544;-71
2022/04/22 14:49:56;;;;;;;9.80;6.80;;;24.20;88.60;;;;;;4949330;29;20568;-72
2022/04/22 14:52:26;;;;;;;9.27;6.70;;;24.20;88.50;;;;;;4948437;29;20897;-72
2022/04/22 14:54:53;;;;;;;8.03;7.20;;;24.20;88.50;;;;;;4948411;28;20906;-71
2022/04/22 14:57:20;;;;;;;8.30;6.73;;;24.20;87.90;;;;;;4948286;29;21083;-71
2022/04/22 14:59:47;;;;;;;7.50;6.20;;;24.10;88.10;;;;;;4949412;29;20457;-71
2022/04/22 15:02:13;;;;;;;8.33;6.60;;;24.20;88.60;;;;;;4948461;29;20481;-73
2022/04/22 15:04:40;;;;;;;8.03;7.17;;;24.20;88.40;;;;;;4948759;29;20884;-72
2022/04/22 15:07:08;;;;;;;10.93;6.67;;;24.10;87.20;;;;;;4946897;29;20462;-73
2022/04/22 15:09:38;;;;;;;9.43;7.13;;;24.10;87.80;;;;;;4946832;28;20819;-73
2022/04/22 15:12:06;;;;;;;11.10;6.70;;;24.00;87.70;;;;;;4948761;29;20507;-73
2022/04/22 15:14:33;;;;;;;10.43;6.50;;;24.00;86.70;;;;;;4949556;28;20457;-75
2022/04/22 15:17:00;;;;;;;10.20;6.30;;;23.90;87.90;;;;;;4948549;29;20468;-72
2022/04/22 15:24:56;;;;;;;8.20;6.40;;;23.80;90.00;;;;;;4948751;29;20531;-72
2022/04/22 15:27:24;;;;;;;8.40;6.10;;;23.70;87.60;;;;;;4948128;29;21038;-73
2022/04/22 15:29:51;;;;;;;11.00;6.53;;;23.70;87.30;;;;;;4948779;29;20469;-72
2022/04/22 15:32:17;;;;;;;9.00;5.73;;;23.70;87.90;;;;;;4948135;29;20491;-73
2022/04/22 15:34:46;;;;;;;10.23;6.50;;;23.70;88.10;;;;;;4948796;29;20457;-73
2022/04/22 15:37:12;;;;;;;7.33;6.00;;;23.70;87.50;;;;;;4948011;28;20472;-72
2022/04/22 15:39:39;;;;;;;9.33;6.43;;;23.70;87.30;;;;;;4948712;29;20549;-74
2022/04/22 15:42:11;;;;;;;9.30;6.33;;;23.70;89.40;;;;;;4948514;29;21015;-72
2022/04/22 15:44:44;;;;;;;9.07;6.50;;;23.70;88.90;;;;;;4948701;29;20465;-73
2022/04/22 15:47:11;;;;;;;7.53;6.67;;;23.70;89.00;;;;;;4947910;29;21200;-73
2022/04/22 15:49:38;;;;;;;7.73;6.87;;;23.70;89.30;;;;;;4949117;28;20542;-73
2022/04/22 15:52:05;;;;;;;9.90;7.13;;;23.70;89.80;;;;;;4949656;28;21143;-74
2022/04/22 15:54:32;;;;;;;7.10;6.40;;;23.70;89.50;;;;;;4949112;29;20464;-75
2022/04/22 15:56:59;;;;;;;7.40;6.17;;;23.60;89.70;;;;;;4947744;29;20881;-75
2022/04/22 15:59:28;;;;;;;11.17;7.03;;;23.50;90.20;;;;;;4948624;29;20497;-75
2022/04/22 16:01:55;;;;;;;8.30;6.83;;;23.50;87.90;;;;;;4948188;29;20536;-75
2022/04/22 16:04:24;;;;;;;8.00;5.70;;;23.30;89.50;;;;;;4948532;29;20461;-75
2022/04/22 16:06:51;;;;;;;8.60;6.80;;;23.20;89.50;;;;;;4947521;28;20513;-75
2022/04/22 16:09:19;;;;;;;10.07;6.47;;;23.20;88.40;;;;;;4948594;28;20483;-75
2022/04/22 16:17:16;;;;;;;7.67;6.23;;;23.00;90.20;;;;;;4947688;29;20433;-75
2022/04/22 16:19:44;;;;;;;10.40;6.30;;;23.00;88.60;;;;;;4947049;29;21044;-75
2022/04/22 16:22:11;;;;;;;9.30;6.00;;;23.00;90.20;;;;;;4948569;29;20501;-75
2022/04/22 16:24:38;;;;;;;6.77;5.97;;;23.00;90.10;;;;;;4948167;28;20545;-75
2022/04/22 16:27:05;;;;;;;8.53;6.57;;;23.10;89.50;;;;;;4947675;29;20512;-75
2022/04/22 16:29:34;;;;;;;7.50;6.63;;;23.00;88.80;;;;;;4948154;29;20457;-75
2022/04/22 16:32:00;;;;;;;7.83;6.33;;;22.90;88.00;;;;;;4948406;29;20489;-75
2022/04/22 16:34:27;;;;;;;7.63;6.83;;;22.80;88.30;;;;;;4947992;29;20458;-75
2022/04/22 16:36:57;;;;;;;7.77;5.80;;;22.70;88.10;;;;;;4947340;29;20549;-75
2022/04/22 16:39:25;;;;;;;7.97;6.27;;;22.70;89.70;;;;;;4947877;28;20499;-75
2022/04/22 16:41:52;;;;;;;7.53;6.50;;;22.60;89.20;;;;;;4947750;29;20466;-75
2022/04/22 16:44:19;;;;;;;6.90;6.20;;;22.50;88.50;;;;;;4947972;29;20461;-70
2022/04/22 16:46:50;;;;;;;7.80;7.00;;;22.40;88.00;;;;;;4947131;29;21028;-74
2022/04/22 16:49:18;;;;;;;6.70;6.10;;;22.20;88.80;;;;;;4947564;28;20457;-75
2022/04/22 16:51:45;;;;;;;7.47;6.30;;;22.20;89.80;;;;;;4945947;29;20588;-75
2022/04/22 16:54:13;;;;;;;7.17;6.47;;;22.20;89.90;;;;;;4951686;28;21233;-75
2022/04/22 16:56:40;;;;;;;8.60;6.70;;;22.10;89.30;;;;;;4956544;28;20456;-75
2022/04/22 16:59:07;;;;;;;7.00;5.63;;;22.00;89.80;;;;;;4946742;29;20505;-75
2022/04/22 17:01:35;;;;;;;10.87;6.50;;;21.90;89.80;;;;;;4946510;29;20488;-75
2022/04/22 17:04:04;;;;;;;8.93;5.73;;;21.90;90.10;;;;;;4946654;29;20543;-75
2022/04/22 17:06:31;;;;;;;7.00;6.13;;;21.80;90.20;;;;;;4945890;28;21591;-75
2022/04/22 17:08:58;;;;;;;9.03;6.30;;;21.70;90.40;;;;;;4946619;29;20556;-75
2022/04/22 17:11:25;;;;;;;6.40;5.80;;;21.70;90.00;;;;;;4946480;29;20456;-74
2022/04/22 17:22:38;;;;;;;10.03;7.40;;;21.70;90.30;;;;;;4947447;28;20607;-74
2022/04/22 17:24:54;;;;;;;6.27;5.67;;;21.30;90.10;;;;;;4947394;29;20429;-75
2022/04/22 17:27:21;;;;;;;6.13;5.00;;;21.20;90.20;;;;;;4946531;28;20901;-73
2022/04/22 17:29:49;;;;;;;7.37;5.90;;;21.00;90.70;;;;;;4947784;29;20512;-75
2022/04/22 17:32:16;;;;;;;6.83;5.97;;;20.90;90.40;;;;;;4947595;29;20487;-76
2022/04/22 17:34:45;;;;;;;7.30;6.03;;;20.80;90.60;;;;;;4947448;29;20453;-75
2022/04/22 17:37:12;;;;;;;7.60;5.70;;;20.70;90.40;;;;;;4946532;29;20552;-76
2022/04/22 17:39:39;;;;;;;8.00;5.70;;;20.60;90.60;;;;;;4947016;29;20497;-75
2022/04/22 17:42:09;;;;;;;5.97;5.33;;;20.40;90.60;;;;;;4947702;28;20478;-74
2022/04/22 17:44:36;;;;;;;7.90;6.33;;;20.30;91.00;;;;;;4952621;28;20541;-76
2022/04/22 17:47:03;;;;;;;9.03;5.50;;;20.20;90.90;;;;;;4946670;29;20476;-75
2022/04/22 17:49:30;;;;;;;6.57;5.77;;;20.10;91.20;;;;;;4946845;29;20524;-75
2022/04/22 17:51:58;;;;;;;8.10;6.13;;;20.00;91.70;;;;;;4947123;28;20568;-74
2022/04/22 17:54:26;;;;;;;6.57;5.90;;;19.90;91.60;;;;;;4955165;28;20567;-75
2022/04/22 17:56:53;;;;;;;9.33;5.93;;;19.80;91.60;;;;;;4967078;28;20535;-74
2022/04/22 17:59:20;;;;;;;7.30;6.60;;;19.80;91.40;;;;;;4984896;28;20526;-74
2022/04/22 18:01:47;;;;;;;9.87;5.40;;;19.70;91.50;;;;;;4985168;28;20991;-75
2022/04/22 18:04:15;;;;;;;10.00;6.37;;;19.70;92.00;;;;;;4985162;28;20464;-75
2022/04/22 18:06:42;;;;;;;7.50;6.40;;;19.60;91.80;;;;;;4984310;28;20468;-74